Pagina principale
METAR-TAF:

METAR-TAF

Aeroporti :

Sugh el Giumaa

Tripoli, Libia

latitudine: 32-54N, longitudine: 13-17E, altezza: 11 m

METAR: mancante

Ora: 21:26 (19:26 UTC)

Previsione

Il bollettino è stato emesso 2 ore e 26 minuti fa, alle 17:00 UTC
Previsione valida dal 24 alle 18 UTC al 25 alle 18 UTC
Vento 15 kt da est
Visibilità 10 km o più
nessuna nube inferiore a 1500 m e nessun cumulonembo
Evoluzione graduale
dal 25 alle 10 UTC al 25 alle 12 UTC
Vento 15 kt da sud/sud-est con raffiche fino a 25 kt
Visibilità: 5000 m
Scaccia sabbia alto
Probabilità 40% :
Temporaneamente
dal 25 alle 15 UTC al 25 alle 18 UTC
Poco nuvoloso ad un'altezza di 4000 ft, Cumulonembo.
Nuvoloso ad un'altezza di 8000 ft
temporale

TAF: HLLM 241700Z 2418/2518 09015KT CAVOK BECMG 2510/2512 16015G25KT 5000 BLSA NSC PROB40 TEMPO 2515/2518 TS FEW040CB BKN080

Osservazioni e previsioni meteorologiche di più di 4000 aeroporti (messaggi METAR e TAF).

Le stazioni disponibili sono rappresentate dai dischi gialli e rossi sulla carta.

Puntare il mouse per vedere il nome della stazione.

Clicca sopra per visualizzare le osservazioni e previsioni meteorologiche.

Per cambiare la mappa : fare clic sui pulsanti verdi con una croce nera per ingrandire, il pulsante verde con un trattino per diminuire, o sulla freccia verde per le mappe adiacenti.


METAR-TAF: